sensor_id;sensor_type;location;lat;lon;timestamp;P1;durP1;ratioP1;P2;durP2;ratioP2
22531;SDS011;11432;46.924;7.114;2023-04-16T00:00:05;1.63;;;0.73;;
22531;SDS011;11432;46.924;7.114;2023-04-16T00:02:32;1.30;;;0.60;;
22531;SDS011;11432;46.924;7.114;2023-04-16T00:04:58;1.23;;;0.60;;
22531;SDS011;11432;46.924;7.114;2023-04-16T00:07:23;0.82;;;0.55;;
22531;SDS011;11432;46.924;7.114;2023-04-16T00:09:49;0.93;;;0.50;;
22531;SDS011;11432;46.924;7.114;2023-04-16T00:12:15;0.73;;;0.50;;
22531;SDS011;11432;46.924;7.114;2023-04-16T00:14:40;1.23;;;0.63;;
22531;SDS011;11432;46.924;7.114;2023-04-16T00:17:07;0.73;;;0.50;;
22531;SDS011;11432;46.924;7.114;2023-04-16T00:19:33;1.10;;;0.57;;
22531;SDS011;11432;46.924;7.114;2023-04-16T00:21:59;1.30;;;0.50;;
22531;SDS011;11432;46.924;7.114;2023-04-16T00:24:25;1.20;;;0.60;;
22531;SDS011;11432;46.924;7.114;2023-04-16T00:26:51;0.82;;;0.50;;
22531;SDS011;11432;46.924;7.114;2023-04-16T00:29:16;1.70;;;0.50;;
22531;SDS011;11432;46.924;7.114;2023-04-16T00:31:42;2.20;;;0.50;;
22531;SDS011;11432;46.924;7.114;2023-04-16T00:34:07;2.42;;;0.50;;
22531;SDS011;11432;46.924;7.114;2023-04-16T00:36:33;0.98;;;0.68;;
22531;SDS011;11432;46.924;7.114;2023-04-16T00:38:59;0.73;;;0.55;;
22531;SDS011;11432;46.924;7.114;2023-04-16T00:41:24;0.77;;;0.47;;
22531;SDS011;11432;46.924;7.114;2023-04-16T00:43:50;1.10;;;0.55;;
22531;SDS011;11432;46.924;7.114;2023-04-16T00:46:17;1.63;;;0.57;;
22531;SDS011;11432;46.924;7.114;2023-04-16T00:48:45;1.08;;;0.60;;
22531;SDS011;11432;46.924;7.114;2023-04-16T00:51:11;0.90;;;0.60;;
22531;SDS011;11432;46.924;7.114;2023-04-16T00:53:36;1.65;;;0.50;;
22531;SDS011;11432;46.924;7.114;2023-04-16T00:56:05;1.17;;;0.60;;
22531;SDS011;11432;46.924;7.114;2023-04-16T00:58:32;1.10;;;0.57;;
22531;SDS011;11432;46.924;7.114;2023-04-16T01:00:59;1.70;;;0.65;;
22531;SDS011;11432;46.924;7.114;2023-04-16T01:03:28;1.48;;;0.75;;
22531;SDS011;11432;46.924;7.114;2023-04-16T01:06:06;1.40;;;0.65;;
22531;SDS011;11432;46.924;7.114;2023-04-16T01:08:31;1.15;;;0.60;;
22531;SDS011;11432;46.924;7.114;2023-04-16T01:10:57;0.93;;;0.70;;
22531;SDS011;11432;46.924;7.114;2023-04-16T01:13:23;0.73;;;0.60;;
22531;SDS011;11432;46.924;7.114;2023-04-16T01:15:49;2.08;;;0.73;;
22531;SDS011;11432;46.924;7.114;2023-04-16T01:18:15;1.58;;;0.60;;
22531;SDS011;11432;46.924;7.114;2023-04-16T01:20:41;1.27;;;0.60;;
22531;SDS011;11432;46.924;7.114;2023-04-16T01:23:07;1.00;;;0.50;;
22531;SDS011;11432;46.924;7.114;2023-04-16T01:25:33;0.88;;;0.60;;
22531;SDS011;11432;46.924;7.114;2023-04-16T01:27:59;1.20;;;0.60;;
22531;SDS011;11432;46.924;7.114;2023-04-16T01:30:24;2.72;;;0.82;;
22531;SDS011;11432;46.924;7.114;2023-04-16T01:32:50;1.85;;;0.80;;
22531;SDS011;11432;46.924;7.114;2023-04-16T01:35:16;0.65;;;0.55;;
22531;SDS011;11432;46.924;7.114;2023-04-16T01:37:42;1.33;;;0.70;;
22531;SDS011;11432;46.924;7.114;2023-04-16T01:40:08;1.38;;;0.65;;
22531;SDS011;11432;46.924;7.114;2023-04-16T01:42:34;2.00;;;0.70;;
22531;SDS011;11432;46.924;7.114;2023-04-16T01:45:01;0.90;;;0.65;;
22531;SDS011;11432;46.924;7.114;2023-04-16T01:47:26;2.85;;;0.70;;
22531;SDS011;11432;46.924;7.114;2023-04-16T01:49:52;1.15;;;0.60;;
22531;SDS011;11432;46.924;7.114;2023-04-16T01:52:18;1.63;;;0.80;;
22531;SDS011;11432;46.924;7.114;2023-04-16T01:54:43;2.10;;;0.60;;
22531;SDS011;11432;46.924;7.114;2023-04-16T01:57:09;1.85;;;0.60;;
22531;SDS011;11432;46.924;7.114;2023-04-16T01:59:35;2.78;;;0.80;;
22531;SDS011;11432;46.924;7.114;2023-04-16T02:02:06;0.88;;;0.60;;
22531;SDS011;11432;46.924;7.114;2023-04-16T02:04:35;0.77;;;0.60;;
22531;SDS011;11432;46.924;7.114;2023-04-16T02:07:02;1.30;;;0.90;;
22531;SDS011;11432;46.924;7.114;2023-04-16T02:09:28;1.52;;;1.00;;
22531;SDS011;11432;46.924;7.114;2023-04-16T02:11:54;3.97;;;1.10;;
22531;SDS011;11432;46.924;7.114;2023-04-16T02:14:19;3.03;;;1.05;;
22531;SDS011;11432;46.924;7.114;2023-04-16T02:16:46;1.48;;;0.82;;
22531;SDS011;11432;46.924;7.114;2023-04-16T02:19:12;0.98;;;0.60;;
22531;SDS011;11432;46.924;7.114;2023-04-16T02:21:37;3.95;;;0.95;;
22531;SDS011;11432;46.924;7.114;2023-04-16T02:24:03;1.48;;;0.82;;
22531;SDS011;11432;46.924;7.114;2023-04-16T02:26:29;3.03;;;0.88;;
22531;SDS011;11432;46.924;7.114;2023-04-16T02:28:54;1.33;;;0.70;;
22531;SDS011;11432;46.924;7.114;2023-04-16T02:31:20;2.78;;;0.93;;
22531;SDS011;11432;46.924;7.114;2023-04-16T02:33:46;1.75;;;1.00;;
22531;SDS011;11432;46.924;7.114;2023-04-16T02:36:12;1.67;;;0.60;;
22531;SDS011;11432;46.924;7.114;2023-04-16T02:38:37;0.80;;;0.70;;
22531;SDS011;11432;46.924;7.114;2023-04-16T02:41:03;2.00;;;0.90;;
22531;SDS011;11432;46.924;7.114;2023-04-16T02:43:29;3.25;;;1.02;;
22531;SDS011;11432;46.924;7.114;2023-04-16T02:45:54;1.90;;;0.80;;
22531;SDS011;11432;46.924;7.114;2023-04-16T02:48:20;1.60;;;0.80;;
22531;SDS011;11432;46.924;7.114;2023-04-16T02:50:45;1.40;;;0.90;;
22531;SDS011;11432;46.924;7.114;2023-04-16T02:53:11;0.95;;;0.65;;
22531;SDS011;11432;46.924;7.114;2023-04-16T02:55:36;1.40;;;0.90;;
22531;SDS011;11432;46.924;7.114;2023-04-16T02:58:02;1.10;;;0.73;;
22531;SDS011;11432;46.924;7.114;2023-04-16T03:00:28;3.47;;;1.00;;
22531;SDS011;11432;46.924;7.114;2023-04-16T03:02:53;0.98;;;0.77;;
22531;SDS011;11432;46.924;7.114;2023-04-16T03:05:19;1.00;;;0.82;;
22531;SDS011;11432;46.924;7.114;2023-04-16T03:07:45;2.80;;;0.95;;
22531;SDS011;11432;46.924;7.114;2023-04-16T03:10:11;1.25;;;0.90;;
22531;SDS011;11432;46.924;7.114;2023-04-16T03:12:37;1.38;;;1.00;;
22531;SDS011;11432;46.924;7.114;2023-04-16T03:15:03;2.35;;;0.80;;
22531;SDS011;11432;46.924;7.114;2023-04-16T03:17:29;2.03;;;1.00;;
22531;SDS011;11432;46.924;7.114;2023-04-16T03:19:55;1.98;;;1.00;;
22531;SDS011;11432;46.924;7.114;2023-04-16T03:22:21;2.38;;;1.20;;
22531;SDS011;11432;46.924;7.114;2023-04-16T03:24:46;2.45;;;0.95;;
22531;SDS011;11432;46.924;7.114;2023-04-16T03:27:12;1.90;;;1.10;;
22531;SDS011;11432;46.924;7.114;2023-04-16T03:29:38;3.55;;;1.25;;
22531;SDS011;11432;46.924;7.114;2023-04-16T03:32:03;2.78;;;1.10;;
22531;SDS011;11432;46.924;7.114;2023-04-16T03:34:29;1.55;;;1.00;;
22531;SDS011;11432;46.924;7.114;2023-04-16T03:36:55;3.00;;;1.20;;
22531;SDS011;11432;46.924;7.114;2023-04-16T03:39:20;2.70;;;1.40;;
22531;SDS011;11432;46.924;7.114;2023-04-16T03:41:46;3.40;;;1.20;;
22531;SDS011;11432;46.924;7.114;2023-04-16T03:44:11;1.65;;;1.33;;
22531;SDS011;11432;46.924;7.114;2023-04-16T03:46:37;1.70;;;1.42;;
22531;SDS011;11432;46.924;7.114;2023-04-16T03:49:03;2.92;;;1.27;;
22531;SDS011;11432;46.924;7.114;2023-04-16T03:51:28;3.33;;;1.27;;
22531;SDS011;11432;46.924;7.114;2023-04-16T03:53:54;3.03;;;1.50;;
22531;SDS011;11432;46.924;7.114;2023-04-16T03:56:20;1.77;;;1.13;;
22531;SDS011;11432;46.924;7.114;2023-04-16T03:58:45;2.63;;;1.60;;
22531;SDS011;11432;46.924;7.114;2023-04-16T04:01:11;2.03;;;1.33;;
22531;SDS011;11432;46.924;7.114;2023-04-16T04:03:36;2.08;;;1.55;;
22531;SDS011;11432;46.924;7.114;2023-04-16T04:06:05;3.83;;;1.70;;
22531;SDS011;11432;46.924;7.114;2023-04-16T04:08:32;6.43;;;1.42;;
22531;SDS011;11432;46.924;7.114;2023-04-16T04:10:57;3.00;;;1.50;;
22531;SDS011;11432;46.924;7.114;2023-04-16T04:13:23;5.35;;;2.38;;
22531;SDS011;11432;46.924;7.114;2023-04-16T04:15:48;2.78;;;1.80;;
22531;SDS011;11432;46.924;7.114;2023-04-16T04:18:14;3.38;;;1.90;;
22531;SDS011;11432;46.924;7.114;2023-04-16T04:20:40;2.97;;;1.83;;
22531;SDS011;11432;46.924;7.114;2023-04-16T04:23:05;3.08;;;1.65;;
22531;SDS011;11432;46.924;7.114;2023-04-16T04:25:31;2.78;;;1.58;;
22531;SDS011;11432;46.924;7.114;2023-04-16T04:27:57;2.28;;;1.70;;
22531;SDS011;11432;46.924;7.114;2023-04-16T04:30:22;2.65;;;1.60;;
22531;SDS011;11432;46.924;7.114;2023-04-16T04:32:48;2.42;;;1.42;;
22531;SDS011;11432;46.924;7.114;2023-04-16T04:35:13;2.10;;;1.58;;
22531;SDS011;11432;46.924;7.114;2023-04-16T04:37:39;2.55;;;1.85;;
22531;SDS011;11432;46.924;7.114;2023-04-16T04:40:05;2.28;;;1.65;;
22531;SDS011;11432;46.924;7.114;2023-04-16T04:42:31;3.00;;;1.63;;
22531;SDS011;11432;46.924;7.114;2023-04-16T04:44:57;3.70;;;1.60;;
22531;SDS011;11432;46.924;7.114;2023-04-16T04:47:22;3.15;;;1.63;;
22531;SDS011;11432;46.924;7.114;2023-04-16T04:49:48;3.30;;;1.70;;
22531;SDS011;11432;46.924;7.114;2023-04-16T04:52:14;4.28;;;1.60;;
22531;SDS011;11432;46.924;7.114;2023-04-16T04:54:39;1.88;;;1.60;;
22531;SDS011;11432;46.924;7.114;2023-04-16T04:57:06;3.00;;;1.63;;
22531;SDS011;11432;46.924;7.114;2023-04-16T04:59:32;2.25;;;1.42;;
22531;SDS011;11432;46.924;7.114;2023-04-16T05:01:58;3.33;;;1.50;;
22531;SDS011;11432;46.924;7.114;2023-04-16T05:04:23;2.70;;;1.80;;
22531;SDS011;11432;46.924;7.114;2023-04-16T05:06:49;2.15;;;1.50;;
22531;SDS011;11432;46.924;7.114;2023-04-16T05:09:15;2.78;;;1.48;;
22531;SDS011;11432;46.924;7.114;2023-04-16T05:11:41;2.47;;;1.50;;
22531;SDS011;11432;46.924;7.114;2023-04-16T05:14:07;3.33;;;1.55;;
22531;SDS011;11432;46.924;7.114;2023-04-16T05:16:36;1.83;;;1.30;;
22531;SDS011;11432;46.924;7.114;2023-04-16T05:19:02;2.50;;;1.30;;
22531;SDS011;11432;46.924;7.114;2023-04-16T05:21:28;4.65;;;1.75;;
22531;SDS011;11432;46.924;7.114;2023-04-16T05:23:53;3.25;;;1.60;;
22531;SDS011;11432;46.924;7.114;2023-04-16T05:26:19;4.55;;;1.50;;
22531;SDS011;11432;46.924;7.114;2023-04-16T05:28:45;3.30;;;1.67;;
22531;SDS011;11432;46.924;7.114;2023-04-16T05:31:10;2.30;;;1.50;;
22531;SDS011;11432;46.924;7.114;2023-04-16T05:33:36;1.80;;;1.30;;
22531;SDS011;11432;46.924;7.114;2023-04-16T05:36:01;2.05;;;1.40;;
22531;SDS011;11432;46.924;7.114;2023-04-16T05:38:27;5.80;;;1.50;;
22531;SDS011;11432;46.924;7.114;2023-04-16T05:40:54;1.85;;;1.33;;
22531;SDS011;11432;46.924;7.114;2023-04-16T05:43:20;2.35;;;1.55;;
22531;SDS011;11432;46.924;7.114;2023-04-16T05:45:45;2.42;;;1.33;;
22531;SDS011;11432;46.924;7.114;2023-04-16T05:48:11;2.63;;;1.73;;
22531;SDS011;11432;46.924;7.114;2023-04-16T05:50:37;2.38;;;1.30;;
22531;SDS011;11432;46.924;7.114;2023-04-16T05:53:04;3.30;;;1.48;;
22531;SDS011;11432;46.924;7.114;2023-04-16T05:55:31;2.30;;;1.65;;
22531;SDS011;11432;46.924;7.114;2023-04-16T05:57:57;2.42;;;1.35;;
22531;SDS011;11432;46.924;7.114;2023-04-16T06:00:23;2.85;;;1.50;;
22531;SDS011;11432;46.924;7.114;2023-04-16T06:02:49;3.40;;;1.60;;
22531;SDS011;11432;46.924;7.114;2023-04-16T06:05:14;1.38;;;1.17;;
22531;SDS011;11432;46.924;7.114;2023-04-16T06:07:40;1.98;;;1.20;;
22531;SDS011;11432;46.924;7.114;2023-04-16T06:10:06;3.17;;;1.42;;
22531;SDS011;11432;46.924;7.114;2023-04-16T06:12:32;1.98;;;1.30;;
22531;SDS011;11432;46.924;7.114;2023-04-16T06:14:58;2.20;;;1.60;;
22531;SDS011;11432;46.924;7.114;2023-04-16T06:17:24;2.33;;;1.17;;
22531;SDS011;11432;46.924;7.114;2023-04-16T06:19:51;2.20;;;1.30;;
22531;SDS011;11432;46.924;7.114;2023-04-16T06:22:16;2.53;;;1.30;;
22531;SDS011;11432;46.924;7.114;2023-04-16T06:24:42;1.52;;;1.17;;
22531;SDS011;11432;46.924;7.114;2023-04-16T06:27:08;3.38;;;1.45;;
22531;SDS011;11432;46.924;7.114;2023-04-16T06:29:33;2.60;;;1.25;;
22531;SDS011;11432;46.924;7.114;2023-04-16T06:31:59;3.05;;;1.40;;
22531;SDS011;11432;46.924;7.114;2023-04-16T06:34:25;2.35;;;1.35;;
22531;SDS011;11432;46.924;7.114;2023-04-16T06:36:52;1.27;;;1.10;;
22531;SDS011;11432;46.924;7.114;2023-04-16T06:39:17;2.85;;;1.30;;
22531;SDS011;11432;46.924;7.114;2023-04-16T06:41:45;2.45;;;1.13;;
22531;SDS011;11432;46.924;7.114;2023-04-16T06:44:11;2.15;;;1.30;;
22531;SDS011;11432;46.924;7.114;2023-04-16T06:46:37;3.08;;;1.50;;
22531;SDS011;11432;46.924;7.114;2023-04-16T06:49:03;3.17;;;2.28;;
22531;SDS011;11432;46.924;7.114;2023-04-16T06:51:28;2.35;;;1.25;;
22531;SDS011;11432;46.924;7.114;2023-04-16T06:53:54;2.17;;;1.40;;
22531;SDS011;11432;46.924;7.114;2023-04-16T06:56:20;2.00;;;1.35;;
22531;SDS011;11432;46.924;7.114;2023-04-16T06:58:45;2.85;;;1.65;;
22531;SDS011;11432;46.924;7.114;2023-04-16T07:01:11;3.80;;;1.60;;
22531;SDS011;11432;46.924;7.114;2023-04-16T07:03:37;3.08;;;1.27;;
22531;SDS011;11432;46.924;7.114;2023-04-16T07:06:02;2.05;;;1.60;;
22531;SDS011;11432;46.924;7.114;2023-04-16T07:08:28;2.20;;;1.38;;
22531;SDS011;11432;46.924;7.114;2023-04-16T07:10:54;1.95;;;1.40;;
22531;SDS011;11432;46.924;7.114;2023-04-16T07:13:19;1.73;;;1.30;;
22531;SDS011;11432;46.924;7.114;2023-04-16T07:15:45;1.77;;;1.40;;
22531;SDS011;11432;46.924;7.114;2023-04-16T07:18:11;2.00;;;1.25;;
22531;SDS011;11432;46.924;7.114;2023-04-16T07:20:37;2.45;;;1.45;;
22531;SDS011;11432;46.924;7.114;2023-04-16T07:23:02;2.10;;;1.55;;
22531;SDS011;11432;46.924;7.114;2023-04-16T07:25:28;2.67;;;1.38;;
22531;SDS011;11432;46.924;7.114;2023-04-16T07:27:54;4.82;;;3.50;;
22531;SDS011;11432;46.924;7.114;2023-04-16T07:30:19;26.17;;;11.68;;
22531;SDS011;11432;46.924;7.114;2023-04-16T07:32:45;8.35;;;4.00;;
22531;SDS011;11432;46.924;7.114;2023-04-16T07:35:10;9.43;;;4.38;;
22531;SDS011;11432;46.924;7.114;2023-04-16T07:37:36;4.90;;;3.30;;
22531;SDS011;11432;46.924;7.114;2023-04-16T07:40:02;4.72;;;2.72;;
22531;SDS011;11432;46.924;7.114;2023-04-16T07:42:28;3.80;;;2.00;;
22531;SDS011;11432;46.924;7.114;2023-04-16T07:44:54;6.20;;;3.33;;
22531;SDS011;11432;46.924;7.114;2023-04-16T07:47:19;4.53;;;2.78;;
22531;SDS011;11432;46.924;7.114;2023-04-16T07:49:47;3.70;;;2.22;;
22531;SDS011;11432;46.924;7.114;2023-04-16T07:52:13;2.63;;;1.80;;
22531;SDS011;11432;46.924;7.114;2023-04-16T07:54:39;4.68;;;2.08;;
22531;SDS011;11432;46.924;7.114;2023-04-16T07:57:05;3.03;;;2.10;;
22531;SDS011;11432;46.924;7.114;2023-04-16T07:59:30;3.92;;;1.90;;
22531;SDS011;11432;46.924;7.114;2023-04-16T08:01:56;3.30;;;2.40;;
22531;SDS011;11432;46.924;7.114;2023-04-16T08:04:21;2.25;;;1.50;;
22531;SDS011;11432;46.924;7.114;2023-04-16T08:06:51;3.17;;;1.80;;
22531;SDS011;11432;46.924;7.114;2023-04-16T08:09:18;2.70;;;1.92;;
22531;SDS011;11432;46.924;7.114;2023-04-16T08:11:45;5.60;;;2.42;;
22531;SDS011;11432;46.924;7.114;2023-04-16T08:14:13;3.72;;;2.15;;
22531;SDS011;11432;46.924;7.114;2023-04-16T08:16:39;4.18;;;2.35;;
22531;SDS011;11432;46.924;7.114;2023-04-16T08:19:04;2.42;;;1.65;;
22531;SDS011;11432;46.924;7.114;2023-04-16T08:21:30;3.15;;;1.70;;
22531;SDS011;11432;46.924;7.114;2023-04-16T08:23:56;2.92;;;1.67;;
22531;SDS011;11432;46.924;7.114;2023-04-16T08:26:22;2.28;;;1.63;;
22531;SDS011;11432;46.924;7.114;2023-04-16T08:28:47;1.45;;;1.20;;
22531;SDS011;11432;46.924;7.114;2023-04-16T08:31:13;2.17;;;1.45;;
22531;SDS011;11432;46.924;7.114;2023-04-16T08:33:39;2.85;;;1.60;;
22531;SDS011;11432;46.924;7.114;2023-04-16T08:36:04;1.60;;;1.20;;
22531;SDS011;11432;46.924;7.114;2023-04-16T08:38:30;2.67;;;1.30;;
22531;SDS011;11432;46.924;7.114;2023-04-16T08:40:56;3.88;;;1.40;;
22531;SDS011;11432;46.924;7.114;2023-04-16T08:43:27;2.00;;;1.27;;
22531;SDS011;11432;46.924;7.114;2023-04-16T08:45:57;3.92;;;1.52;;
22531;SDS011;11432;46.924;7.114;2023-04-16T08:48:24;2.53;;;1.40;;
22531;SDS011;11432;46.924;7.114;2023-04-16T08:50:56;1.80;;;1.55;;
22531;SDS011;11432;46.924;7.114;2023-04-16T08:53:28;1.92;;;1.35;;
22531;SDS011;11432;46.924;7.114;2023-04-16T08:55:59;3.40;;;1.60;;
22531;SDS011;11432;46.924;7.114;2023-04-16T08:58:28;2.28;;;1.60;;
22531;SDS011;11432;46.924;7.114;2023-04-16T09:00:59;2.83;;;1.70;;
22531;SDS011;11432;46.924;7.114;2023-04-16T09:03:27;2.03;;;1.67;;
22531;SDS011;11432;46.924;7.114;2023-04-16T09:05:54;7.38;;;2.10;;
22531;SDS011;11432;46.924;7.114;2023-04-16T09:08:23;2.45;;;1.77;;
22531;SDS011;11432;46.924;7.114;2023-04-16T09:10:49;4.60;;;2.38;;
22531;SDS011;11432;46.924;7.114;2023-04-16T09:13:15;5.13;;;1.95;;
22531;SDS011;11432;46.924;7.114;2023-04-16T09:15:44;3.50;;;2.20;;
22531;SDS011;11432;46.924;7.114;2023-04-16T09:18:10;3.30;;;2.13;;
22531;SDS011;11432;46.924;7.114;2023-04-16T09:20:36;2.90;;;2.25;;
22531;SDS011;11432;46.924;7.114;2023-04-16T09:23:03;3.65;;;2.55;;
22531;SDS011;11432;46.924;7.114;2023-04-16T09:25:35;3.28;;;2.20;;
22531;SDS011;11432;46.924;7.114;2023-04-16T09:28:01;3.75;;;2.67;;
22531;SDS011;11432;46.924;7.114;2023-04-16T09:30:27;3.85;;;2.80;;
22531;SDS011;11432;46.924;7.114;2023-04-16T09:35:47;3.55;;;2.28;;
22531;SDS011;11432;46.924;7.114;2023-04-16T09:38:14;3.45;;;2.28;;
22531;SDS011;11432;46.924;7.114;2023-04-16T09:40:40;3.47;;;2.75;;
22531;SDS011;11432;46.924;7.114;2023-04-16T09:43:16;2.95;;;2.63;;
22531;SDS011;11432;46.924;7.114;2023-04-16T09:45:52;3.88;;;2.78;;
22531;SDS011;11432;46.924;7.114;2023-04-16T09:48:31;4.00;;;2.63;;
22531;SDS011;11432;46.924;7.114;2023-04-16T09:50:58;3.38;;;2.40;;
22531;SDS011;11432;46.924;7.114;2023-04-16T09:53:25;3.22;;;2.47;;
22531;SDS011;11432;46.924;7.114;2023-04-16T09:55:55;3.72;;;2.78;;
22531;SDS011;11432;46.924;7.114;2023-04-16T09:58:22;5.82;;;2.75;;
22531;SDS011;11432;46.924;7.114;2023-04-16T10:00:48;5.25;;;2.50;;
22531;SDS011;11432;46.924;7.114;2023-04-16T10:03:24;3.42;;;2.50;;
22531;SDS011;11432;46.924;7.114;2023-04-16T10:08:48;3.95;;;2.60;;
22531;SDS011;11432;46.924;7.114;2023-04-16T10:11:15;3.97;;;2.60;;
22531;SDS011;11432;46.924;7.114;2023-04-16T10:13:41;3.10;;;2.33;;
22531;SDS011;11432;46.924;7.114;2023-04-16T10:16:07;4.32;;;2.78;;
22531;SDS011;11432;46.924;7.114;2023-04-16T10:18:37;5.47;;;3.35;;
22531;SDS011;11432;46.924;7.114;2023-04-16T10:21:04;3.97;;;2.38;;
22531;SDS011;11432;46.924;7.114;2023-04-16T10:23:31;3.88;;;2.92;;
22531;SDS011;11432;46.924;7.114;2023-04-16T10:25:57;6.30;;;2.45;;
22531;SDS011;11432;46.924;7.114;2023-04-16T10:28:24;3.55;;;2.90;;
22531;SDS011;11432;46.924;7.114;2023-04-16T10:30:52;2.67;;;2.35;;
22531;SDS011;11432;46.924;7.114;2023-04-16T10:33:21;2.72;;;2.28;;
22531;SDS011;11432;46.924;7.114;2023-04-16T10:35:52;3.42;;;2.40;;
22531;SDS011;11432;46.924;7.114;2023-04-16T10:38:31;3.60;;;2.42;;
22531;SDS011;11432;46.924;7.114;2023-04-16T10:41:04;3.78;;;2.50;;
22531;SDS011;11432;46.924;7.114;2023-04-16T10:43:31;3.60;;;2.78;;
22531;SDS011;11432;46.924;7.114;2023-04-16T10:46:22;3.88;;;2.80;;
22531;SDS011;11432;46.924;7.114;2023-04-16T10:48:48;3.72;;;2.50;;
22531;SDS011;11432;46.924;7.114;2023-04-16T10:51:23;4.35;;;2.70;;
22531;SDS011;11432;46.924;7.114;2023-04-16T10:53:59;2.88;;;2.50;;
22531;SDS011;11432;46.924;7.114;2023-04-16T10:56:33;2.83;;;2.30;;
22531;SDS011;11432;46.924;7.114;2023-04-16T10:58:59;4.30;;;2.47;;
22531;SDS011;11432;46.924;7.114;2023-04-16T11:01:29;5.88;;;2.92;;
22531;SDS011;11432;46.924;7.114;2023-04-16T11:04:00;2.67;;;2.20;;
22531;SDS011;11432;46.924;7.114;2023-04-16T11:12:16;3.83;;;2.40;;
22531;SDS011;11432;46.924;7.114;2023-04-16T11:14:47;3.47;;;2.33;;
22531;SDS011;11432;46.924;7.114;2023-04-16T11:17:14;5.07;;;2.22;;
22531;SDS011;11432;46.924;7.114;2023-04-16T11:19:41;3.60;;;2.50;;
22531;SDS011;11432;46.924;7.114;2023-04-16T11:22:07;4.53;;;2.42;;
22531;SDS011;11432;46.924;7.114;2023-04-16T11:24:32;3.40;;;2.33;;
22531;SDS011;11432;46.924;7.114;2023-04-16T11:26:58;3.38;;;2.72;;
22531;SDS011;11432;46.924;7.114;2023-04-16T11:29:25;3.92;;;2.50;;
22531;SDS011;11432;46.924;7.114;2023-04-16T11:31:51;4.13;;;2.92;;
22531;SDS011;11432;46.924;7.114;2023-04-16T11:34:18;4.15;;;2.80;;
22531;SDS011;11432;46.924;7.114;2023-04-16T11:36:48;2.58;;;1.98;;
22531;SDS011;11432;46.924;7.114;2023-04-16T11:39:15;2.90;;;2.35;;
22531;SDS011;11432;46.924;7.114;2023-04-16T11:41:44;4.38;;;2.35;;
22531;SDS011;11432;46.924;7.114;2023-04-16T11:46:42;3.60;;;2.30;;
22531;SDS011;11432;46.924;7.114;2023-04-16T11:49:07;3.17;;;2.20;;
22531;SDS011;11432;46.924;7.114;2023-04-16T11:51:38;2.65;;;2.10;;
22531;SDS011;11432;46.924;7.114;2023-04-16T11:54:19;3.30;;;2.05;;
22531;SDS011;11432;46.924;7.114;2023-04-16T11:56:46;3.35;;;2.38;;
22531;SDS011;11432;46.924;7.114;2023-04-16T11:59:17;2.78;;;2.17;;
22531;SDS011;11432;46.924;7.114;2023-04-16T12:01:45;3.35;;;2.25;;
22531;SDS011;11432;46.924;7.114;2023-04-16T12:04:16;3.10;;;2.28;;
22531;SDS011;11432;46.924;7.114;2023-04-16T12:09:34;3.05;;;2.60;;
22531;SDS011;11432;46.924;7.114;2023-04-16T12:12:02;3.00;;;2.30;;
22531;SDS011;11432;46.924;7.114;2023-04-16T12:14:28;2.92;;;2.10;;
22531;SDS011;11432;46.924;7.114;2023-04-16T12:16:55;3.13;;;2.10;;
22531;SDS011;11432;46.924;7.114;2023-04-16T12:19:22;3.63;;;2.50;;
22531;SDS011;11432;46.924;7.114;2023-04-16T12:21:48;5.72;;;2.67;;
22531;SDS011;11432;46.924;7.114;2023-04-16T12:24:17;5.88;;;2.42;;
22531;SDS011;11432;46.924;7.114;2023-04-16T12:26:51;3.42;;;2.58;;
22531;SDS011;11432;46.924;7.114;2023-04-16T12:29:22;2.85;;;1.92;;
22531;SDS011;11432;46.924;7.114;2023-04-16T12:31:49;3.55;;;2.30;;
22531;SDS011;11432;46.924;7.114;2023-04-16T12:34:16;4.05;;;2.30;;
22531;SDS011;11432;46.924;7.114;2023-04-16T12:36:43;3.92;;;2.45;;
22531;SDS011;11432;46.924;7.114;2023-04-16T12:39:09;4.03;;;2.38;;
22531;SDS011;11432;46.924;7.114;2023-04-16T12:41:36;3.55;;;2.45;;
22531;SDS011;11432;46.924;7.114;2023-04-16T12:44:10;2.40;;;2.00;;
22531;SDS011;11432;46.924;7.114;2023-04-16T12:46:40;2.97;;;2.40;;
22531;SDS011;11432;46.924;7.114;2023-04-16T12:49:06;3.30;;;1.85;;
22531;SDS011;11432;46.924;7.114;2023-04-16T12:51:33;3.35;;;2.38;;
22531;SDS011;11432;46.924;7.114;2023-04-16T12:54:00;3.08;;;2.22;;
22531;SDS011;11432;46.924;7.114;2023-04-16T12:56:27;3.38;;;2.28;;
22531;SDS011;11432;46.924;7.114;2023-04-16T12:58:53;3.20;;;2.15;;
22531;SDS011;11432;46.924;7.114;2023-04-16T13:01:19;3.33;;;2.20;;
22531;SDS011;11432;46.924;7.114;2023-04-16T13:03:45;3.00;;;2.08;;
22531;SDS011;11432;46.924;7.114;2023-04-16T13:06:11;2.85;;;2.47;;
22531;SDS011;11432;46.924;7.114;2023-04-16T13:08:38;3.80;;;2.50;;
22531;SDS011;11432;46.924;7.114;2023-04-16T13:11:04;3.28;;;2.53;;
22531;SDS011;11432;46.924;7.114;2023-04-16T13:13:30;3.15;;;2.40;;
22531;SDS011;11432;46.924;7.114;2023-04-16T13:15:56;3.63;;;2.42;;
22531;SDS011;11432;46.924;7.114;2023-04-16T13:18:21;3.58;;;2.63;;
22531;SDS011;11432;46.924;7.114;2023-04-16T13:20:47;3.28;;;2.20;;
22531;SDS011;11432;46.924;7.114;2023-04-16T13:23:13;4.50;;;2.60;;
22531;SDS011;11432;46.924;7.114;2023-04-16T13:25:38;2.70;;;2.20;;
22531;SDS011;11432;46.924;7.114;2023-04-16T13:28:04;3.15;;;2.05;;
22531;SDS011;11432;46.924;7.114;2023-04-16T13:30:30;4.93;;;2.90;;
22531;SDS011;11432;46.924;7.114;2023-04-16T13:32:57;4.07;;;2.80;;
22531;SDS011;11432;46.924;7.114;2023-04-16T13:35:23;3.10;;;2.22;;
22531;SDS011;11432;46.924;7.114;2023-04-16T13:37:48;4.00;;;2.58;;
22531;SDS011;11432;46.924;7.114;2023-04-16T13:40:14;4.60;;;2.50;;
22531;SDS011;11432;46.924;7.114;2023-04-16T13:42:40;4.22;;;2.45;;
22531;SDS011;11432;46.924;7.114;2023-04-16T13:45:06;3.50;;;2.70;;
22531;SDS011;11432;46.924;7.114;2023-04-16T13:47:33;3.50;;;2.72;;
22531;SDS011;11432;46.924;7.114;2023-04-16T13:49:59;4.63;;;2.50;;
22531;SDS011;11432;46.924;7.114;2023-04-16T13:52:25;3.92;;;2.78;;
22531;SDS011;11432;46.924;7.114;2023-04-16T13:54:50;4.05;;;2.63;;
22531;SDS011;11432;46.924;7.114;2023-04-16T13:57:16;4.70;;;2.58;;
22531;SDS011;11432;46.924;7.114;2023-04-16T13:59:42;3.75;;;2.58;;
22531;SDS011;11432;46.924;7.114;2023-04-16T14:02:08;3.25;;;2.42;;
22531;SDS011;11432;46.924;7.114;2023-04-16T14:04:35;4.22;;;2.63;;
22531;SDS011;11432;46.924;7.114;2023-04-16T14:07:00;3.65;;;2.40;;
22531;SDS011;11432;46.924;7.114;2023-04-16T14:09:26;5.00;;;3.28;;
22531;SDS011;11432;46.924;7.114;2023-04-16T14:11:52;3.97;;;2.90;;
22531;SDS011;11432;46.924;7.114;2023-04-16T14:14:17;4.63;;;3.15;;
22531;SDS011;11432;46.924;7.114;2023-04-16T14:16:43;3.50;;;2.63;;
22531;SDS011;11432;46.924;7.114;2023-04-16T14:19:09;2.92;;;2.45;;
22531;SDS011;11432;46.924;7.114;2023-04-16T14:21:34;3.38;;;2.33;;
22531;SDS011;11432;46.924;7.114;2023-04-16T14:24:00;3.22;;;2.28;;
22531;SDS011;11432;46.924;7.114;2023-04-16T14:26:27;3.10;;;2.38;;
22531;SDS011;11432;46.924;7.114;2023-04-16T14:28:52;4.15;;;2.42;;
22531;SDS011;11432;46.924;7.114;2023-04-16T14:31:18;3.38;;;2.53;;
22531;SDS011;11432;46.924;7.114;2023-04-16T14:33:44;3.13;;;2.38;;
22531;SDS011;11432;46.924;7.114;2023-04-16T14:36:10;3.83;;;2.75;;
22531;SDS011;11432;46.924;7.114;2023-04-16T14:38:36;3.97;;;2.78;;
22531;SDS011;11432;46.924;7.114;2023-04-16T14:41:02;4.22;;;2.90;;
22531;SDS011;11432;46.924;7.114;2023-04-16T14:43:27;3.55;;;2.40;;
22531;SDS011;11432;46.924;7.114;2023-04-16T14:45:53;4.18;;;2.80;;
22531;SDS011;11432;46.924;7.114;2023-04-16T14:48:22;3.92;;;2.58;;
22531;SDS011;11432;46.924;7.114;2023-04-16T14:50:48;5.38;;;2.30;;
22531;SDS011;11432;46.924;7.114;2023-04-16T14:53:13;3.80;;;2.58;;
22531;SDS011;11432;46.924;7.114;2023-04-16T14:55:39;4.32;;;2.97;;
22531;SDS011;11432;46.924;7.114;2023-04-16T14:58:05;3.78;;;2.75;;
22531;SDS011;11432;46.924;7.114;2023-04-16T15:00:31;5.60;;;2.90;;